createdAt,value
2018-11-07T00:00:22.355Z,147.28
2018-11-07T00:00:57.015Z,135.70
2018-11-07T00:01:32.034Z,140.90
2018-11-07T00:02:06.835Z,134.97
2018-11-07T00:02:41.638Z,132.80
2018-11-07T00:03:16.619Z,149.25
2018-11-07T00:03:51.537Z,210.30
2018-11-07T00:04:26.374Z,135.40
2018-11-07T00:05:01.375Z,164.90
2018-11-07T00:05:36.215Z,178.15
2018-11-07T00:06:11.122Z,123.95
2018-11-07T00:06:45.981Z,111.52
2018-11-07T00:07:20.915Z,106.25
2018-11-07T00:07:56.040Z,141.85
2018-11-07T00:08:30.971Z,144.43
2018-11-07T00:09:06.955Z,126.55
2018-11-07T00:09:41.934Z,107.03
2018-11-07T00:10:16.915Z,98.07
2018-11-07T00:10:51.774Z,89.30
2018-11-07T00:11:26.714Z,82.00
2018-11-07T00:12:01.524Z,94.87
2018-11-07T00:12:36.415Z,95.40
2018-11-07T00:13:12.136Z,103.70
2018-11-07T00:13:47.922Z,111.83
2018-11-07T00:14:22.815Z,101.18
2018-11-07T00:14:57.694Z,111.60
2018-11-07T00:15:32.614Z,115.57
2018-11-07T00:16:07.875Z,100.58
2018-11-07T00:16:42.481Z,89.77
2018-11-07T00:17:17.478Z,101.27
2018-11-07T00:17:52.494Z,83.20
2018-11-07T00:18:27.035Z,80.57
2018-11-07T00:19:01.774Z,84.92
2018-11-07T00:19:36.444Z,83.33
2018-11-07T00:20:11.917Z,83.50
2018-11-07T00:20:46.655Z,101.05
2018-11-07T00:21:21.714Z,79.97
2018-11-07T00:21:56.495Z,86.72
2018-11-07T00:22:31.375Z,71.97
2018-11-07T00:23:06.117Z,83.82
2018-11-07T00:23:41.014Z,74.03
2018-11-07T00:24:15.934Z,81.82
2018-11-07T00:24:50.875Z,87.92
2018-11-07T00:25:25.654Z,88.12
2018-11-07T00:26:00.634Z,74.72
2018-11-07T00:26:35.722Z,83.97
2018-11-07T00:27:10.557Z,83.00
2018-11-07T00:27:45.455Z,104.92
2018-11-07T00:28:20.354Z,111.55
2018-11-07T00:28:55.358Z,87.75
2018-11-07T00:29:30.114Z,79.82
2018-11-07T00:30:05.310Z,72.62
2018-11-07T00:30:40.201Z,83.82
2018-11-07T00:31:15.142Z,76.30
2018-11-07T00:31:49.855Z,86.92
2018-11-07T00:32:24.734Z,95.03
2018-11-07T00:32:59.445Z,116.93
2018-11-07T00:33:34.315Z,98.95
2018-11-07T00:34:09.535Z,137.60
2018-11-07T00:34:44.095Z,104.23
2018-11-07T00:35:18.962Z,109.32
2018-11-07T00:35:53.955Z,78.97
2018-11-07T00:36:28.894Z,84.40
2018-11-07T00:37:03.837Z,77.82
2018-11-07T00:37:38.735Z,81.12
2018-11-07T00:38:13.655Z,73.05
2018-11-07T00:38:48.565Z,75.22
2018-11-07T00:39:23.455Z,78.50
2018-11-07T00:39:58.394Z,77.03
2018-11-07T00:40:33.374Z,73.67
2018-11-07T00:41:08.195Z,81.67
2018-11-07T00:41:43.314Z,84.55
2018-11-07T00:42:18.428Z,93.42
2018-11-07T00:42:53.182Z,102.32
2018-11-07T00:43:28.074Z,93.55
2018-11-07T00:44:02.975Z,131.60
2018-11-07T00:44:37.922Z,129.82
2018-11-07T00:45:13.815Z,177.50
2018-11-07T00:45:48.613Z,153.07
2018-11-07T00:46:23.423Z,113.08
2018-11-07T00:46:58.454Z,106.35
2018-11-07T00:47:33.373Z,116.67
2018-11-07T00:48:08.294Z,93.27
2018-11-07T00:48:43.073Z,116.08
2018-11-07T00:49:17.794Z,94.22
2018-11-07T00:49:52.654Z,76.90
2018-11-07T00:50:27.762Z,98.15
2018-11-07T00:51:02.635Z,84.95
2018-11-07T00:51:37.596Z,87.92
2018-11-07T00:52:12.434Z,83.97
2018-11-07T00:52:47.495Z,80.75
2018-11-07T00:53:22.474Z,79.27
2018-11-07T00:53:57.574Z,81.87
2018-11-07T00:54:32.442Z,75.92
2018-11-07T00:55:07.555Z,81.20
2018-11-07T00:55:42.514Z,80.47
2018-11-07T00:56:17.254Z,68.25
2018-11-07T00:56:52.354Z,63.52
2018-11-07T00:57:27.213Z,77.12
2018-11-07T00:58:02.110Z,86.47
2018-11-07T00:58:36.814Z,88.15
2018-11-07T00:59:11.793Z,92.08
2018-11-07T00:59:46.581Z,81.53
2018-11-07T01:00:21.514Z,117.93
2018-11-07T01:00:56.416Z,130.90
2018-11-07T01:01:31.414Z,87.40
2018-11-07T01:02:06.435Z,72.78
2018-11-07T01:02:41.561Z,75.55
2018-11-07T01:03:16.715Z,66.85
2018-11-07T01:03:51.676Z,59.90
2018-11-07T01:04:26.674Z,61.95
2018-11-07T01:05:01.853Z,60.55
2018-11-07T01:05:36.933Z,63.48
2018-11-07T01:06:11.815Z,59.77
2018-11-07T01:06:46.894Z,68.75
2018-11-07T01:07:22.155Z,75.03
2018-11-07T01:07:57.236Z,72.50
2018-11-07T01:08:32.155Z,74.05
2018-11-07T01:09:11.830Z,63.60
2018-11-07T01:09:46.834Z,61.40
2018-11-07T01:10:21.945Z,66.85
2018-11-07T01:10:56.894Z,69.80
2018-11-07T01:11:31.934Z,66.20
2018-11-07T01:12:07.133Z,66.37
2018-11-07T01:12:42.838Z,71.90
2018-11-07T01:13:17.854Z,70.00
2018-11-07T01:13:53.116Z,76.70
2018-11-07T01:14:28.096Z,80.87
2018-11-07T01:15:03.014Z,72.65
2018-11-07T01:15:37.795Z,79.30
2018-11-07T01:16:12.634Z,73.65
2018-11-07T01:16:47.551Z,78.90
2018-11-07T01:17:22.615Z,77.30
2018-11-07T01:17:57.581Z,73.50
2018-11-07T01:18:32.782Z,61.05
2018-11-07T01:19:08.094Z,66.28
2018-11-07T01:19:43.054Z,62.35
2018-11-07T01:20:17.942Z,66.85
2018-11-07T01:20:52.881Z,72.58
2018-11-07T01:21:27.822Z,77.60
2018-11-07T01:22:02.779Z,74.10
2018-11-07T01:22:37.807Z,73.92
2018-11-07T01:23:12.803Z,69.27
2018-11-07T01:23:47.755Z,68.75
2018-11-07T01:24:22.576Z,62.08
2018-11-07T01:24:57.697Z,58.25
2018-11-07T01:25:32.644Z,61.95
2018-11-07T01:26:07.534Z,68.87
2018-11-07T01:26:42.314Z,65.55
2018-11-07T01:27:17.514Z,63.80
2018-11-07T01:27:52.354Z,69.90
2018-11-07T01:28:27.334Z,65.52
2018-11-07T01:29:02.255Z,57.75
2018-11-07T01:29:37.015Z,54.40
2018-11-07T01:30:13.912Z,53.73
2018-11-07T01:30:48.834Z,52.20
2018-11-07T01:31:23.902Z,54.38
2018-11-07T01:31:58.855Z,57.93
2018-11-07T01:32:33.735Z,49.23
2018-11-07T01:33:08.933Z,59.63
2018-11-07T01:33:43.757Z,61.85
2018-11-07T01:34:18.694Z,53.02
2018-11-07T01:34:53.694Z,55.15
2018-11-07T01:35:28.478Z,55.45
2018-11-07T01:36:03.558Z,52.83
2018-11-07T01:36:38.255Z,53.58
2018-11-07T01:37:13.255Z,53.98
2018-11-07T01:37:48.234Z,57.83
2018-11-07T01:38:23.258Z,56.63
2018-11-07T01:38:58.054Z,52.30
2018-11-07T01:39:32.855Z,55.50
2018-11-07T01:40:11.255Z,53.80
2018-11-07T01:40:46.134Z,52.98
2018-11-07T01:41:20.901Z,46.70
2018-11-07T01:41:55.781Z,48.70
2018-11-07T01:42:30.733Z,53.90
2018-11-07T01:43:05.957Z,50.45
2018-11-07T01:43:40.695Z,48.68
2018-11-07T01:44:15.442Z,48.78
2018-11-07T01:44:50.454Z,62.83
2018-11-07T01:45:25.453Z,74.20
2018-11-07T01:46:00.475Z,67.15
2018-11-07T01:46:35.375Z,62.10
2018-11-07T01:47:10.274Z,69.60
2018-11-07T01:47:45.236Z,68.62
2018-11-07T01:48:19.802Z,72.67
2018-11-07T01:48:54.454Z,82.85
2018-11-07T01:49:29.093Z,79.32
2018-11-07T01:50:03.854Z,74.55
2018-11-07T01:50:38.594Z,68.60
2018-11-07T01:51:13.334Z,82.80
2018-11-07T01:51:47.978Z,75.87
2018-11-07T01:52:22.654Z,74.90
2018-11-07T01:52:57.373Z,59.42
2018-11-07T01:53:32.193Z,53.30
2018-11-07T01:54:07.002Z,55.98
2018-11-07T01:54:41.714Z,60.73
2018-11-07T01:55:16.213Z,56.15
2018-11-07T01:55:50.994Z,51.85
2018-11-07T01:56:25.733Z,59.30
2018-11-07T01:57:00.336Z,52.70
2018-11-07T01:57:35.253Z,50.73
2018-11-07T01:58:10.054Z,52.78
2018-11-07T01:58:44.834Z,55.45
2018-11-07T01:59:19.494Z,63.23
2018-11-07T01:59:54.213Z,54.53
2018-11-07T02:00:28.762Z,47.78
2018-11-07T02:01:03.514Z,55.58
2018-11-07T02:01:38.233Z,62.43
2018-11-07T02:02:12.936Z,105.12
2018-11-07T02:02:47.714Z,62.43
2018-11-07T02:03:22.521Z,64.72
2018-11-07T02:03:57.236Z,76.57
2018-11-07T02:04:32.042Z,63.58
2018-11-07T02:05:07.081Z,64.00
2018-11-07T02:05:42.038Z,58.25
2018-11-07T02:06:16.993Z,57.45
2018-11-07T02:06:51.919Z,56.55
2018-11-07T02:07:26.693Z,52.43
2018-11-07T02:08:01.661Z,47.80
2018-11-07T02:08:36.574Z,56.58
2018-11-07T02:09:11.599Z,52.80
2018-11-07T02:09:46.375Z,58.17
2018-11-07T02:10:21.214Z,59.13
2018-11-07T02:10:56.002Z,60.10
2018-11-07T02:11:30.854Z,58.55
2018-11-07T02:12:05.736Z,55.03
2018-11-07T02:12:41.063Z,58.75
2018-11-07T02:13:15.874Z,59.77
2018-11-07T02:13:50.794Z,50.65
2018-11-07T02:14:25.598Z,50.58
2018-11-07T02:15:00.574Z,52.48
2018-11-07T02:15:35.455Z,50.35
2018-11-07T02:16:10.514Z,47.55
2018-11-07T02:16:45.682Z,49.65
2018-11-07T02:17:20.634Z,52.48
2018-11-07T02:17:55.574Z,54.55
2018-11-07T02:18:30.410Z,50.85
2018-11-07T02:19:05.773Z,50.43
2018-11-07T02:19:40.794Z,53.13
2018-11-07T02:20:15.854Z,51.50
2018-11-07T02:20:50.674Z,48.02
2018-11-07T02:21:25.594Z,45.17
2018-11-07T02:22:00.614Z,49.03
2018-11-07T02:22:35.437Z,51.70
2018-11-07T02:23:10.341Z,48.38
2018-11-07T02:23:45.202Z,51.23
2018-11-07T02:24:21.114Z,49.15
2018-11-07T02:24:55.933Z,50.73
2018-11-07T02:25:30.734Z,50.90
2018-11-07T02:26:05.693Z,51.92
2018-11-07T02:26:40.553Z,52.67
2018-11-07T02:27:15.314Z,57.50
2018-11-07T02:27:50.215Z,45.98
2018-11-07T02:28:25.014Z,53.05
2018-11-07T02:28:59.894Z,56.48
2018-11-07T02:29:34.956Z,68.22
2018-11-07T02:30:13.126Z,66.15
2018-11-07T02:30:47.816Z,60.38
2018-11-07T02:31:22.755Z,59.50
2018-11-07T02:31:57.722Z,61.48
2018-11-07T02:32:32.735Z,60.83
2018-11-07T02:33:07.841Z,66.92
2018-11-07T02:33:42.796Z,76.00
2018-11-07T02:34:17.715Z,74.80
2018-11-07T02:34:52.554Z,97.65
2018-11-07T02:35:27.333Z,101.65
2018-11-07T02:36:02.235Z,98.92
2018-11-07T02:36:37.241Z,106.32
2018-11-07T02:37:12.243Z,132.63
2018-11-07T02:37:47.433Z,90.42
2018-11-07T02:38:25.622Z,90.40
2018-11-07T02:39:00.782Z,82.67
2018-11-07T02:39:35.574Z,89.37
2018-11-07T02:40:10.575Z,85.07
2018-11-07T02:40:45.594Z,72.35
2018-11-07T02:41:20.662Z,62.40
2018-11-07T02:41:55.577Z,65.57
2018-11-07T02:42:30.474Z,61.88
2018-11-07T02:43:05.675Z,59.58
2018-11-07T02:43:40.742Z,71.40
2018-11-07T02:44:15.644Z,63.13
2018-11-07T02:44:50.495Z,59.27
2018-11-07T02:45:25.523Z,58.50
2018-11-07T02:46:00.233Z,56.20
2018-11-07T02:46:35.156Z,56.55
2018-11-07T02:47:10.033Z,57.30
2018-11-07T02:47:44.813Z,58.17
2018-11-07T02:48:19.658Z,56.80
2018-11-07T02:48:54.639Z,45.30
2018-11-07T02:49:29.594Z,48.65
2018-11-07T02:50:04.455Z,46.65
2018-11-07T02:50:39.294Z,48.80
2018-11-07T02:51:14.139Z,49.35
2018-11-07T02:51:49.181Z,52.78
2018-11-07T02:52:23.993Z,49.35
2018-11-07T02:52:58.794Z,52.33
2018-11-07T02:53:33.940Z,58.10
2018-11-07T02:54:08.914Z,62.65
2018-11-07T02:54:43.753Z,65.03
2018-11-07T02:55:18.656Z,63.38
2018-11-07T02:55:53.575Z,58.83
2018-11-07T02:56:28.486Z,52.75
2018-11-07T02:57:03.355Z,54.13
2018-11-07T02:57:38.633Z,57.23
2018-11-07T02:58:13.453Z,56.25
2018-11-07T02:58:48.394Z,57.70
2018-11-07T02:59:23.295Z,53.87
2018-11-07T02:59:58.114Z,49.73
2018-11-07T03:00:33.036Z,49.45
2018-11-07T03:01:08.280Z,58.75
2018-11-07T03:01:43.114Z,57.60
2018-11-07T03:02:18.211Z,58.98
2018-11-07T03:07:56.553Z,44.10
2018-11-07T03:08:32.996Z,41.58
2018-11-07T03:09:10.046Z,48.28
2018-11-07T03:09:44.954Z,44.40
2018-11-07T03:10:19.793Z,46.02
2018-11-07T03:10:54.695Z,49.18
2018-11-07T03:11:29.536Z,48.33
2018-11-07T03:12:04.515Z,51.23
2018-11-07T03:12:39.675Z,49.95
2018-11-07T03:13:14.773Z,55.80
2018-11-07T03:13:49.535Z,51.73
2018-11-07T03:14:24.514Z,58.75
2018-11-07T03:14:59.414Z,54.15
2018-11-07T03:15:34.274Z,52.48
2018-11-07T03:16:09.034Z,52.58
2018-11-07T03:16:43.877Z,52.95
2018-11-07T03:17:18.654Z,49.80
2018-11-07T03:17:53.353Z,57.55
2018-11-07T03:18:28.297Z,49.48
2018-11-07T03:19:02.993Z,49.33
2018-11-07T03:19:37.799Z,58.05
2018-11-07T03:20:13.554Z,57.08
2018-11-07T03:20:48.404Z,62.30
2018-11-07T03:21:23.121Z,66.67
2018-11-07T03:21:57.940Z,65.17
2018-11-07T03:22:32.953Z,62.62
2018-11-07T03:23:07.855Z,65.65
2018-11-07T03:23:42.894Z,67.60
2018-11-07T03:24:17.835Z,66.62
2018-11-07T03:24:52.742Z,70.92
2018-11-07T03:25:27.614Z,70.75
2018-11-07T03:26:02.778Z,65.35
2018-11-07T03:26:37.833Z,68.25
2018-11-07T03:27:12.553Z,64.00
2018-11-07T03:27:47.514Z,58.70
2018-11-07T03:28:22.534Z,62.20
2018-11-07T03:28:57.514Z,58.15
2018-11-07T03:29:32.253Z,61.33
2018-11-07T03:30:08.093Z,56.05
2018-11-07T03:30:42.935Z,57.03
2018-11-07T03:31:17.885Z,53.15
2018-11-07T03:31:53.007Z,57.58
2018-11-07T03:32:27.661Z,58.87
2018-11-07T03:33:02.494Z,58.02
2018-11-07T03:33:37.259Z,62.13
2018-11-07T03:34:12.175Z,60.80
2018-11-07T03:34:46.794Z,60.05
2018-11-07T03:35:28.357Z,61.95
2018-11-07T03:36:03.034Z,59.42
2018-11-07T03:36:38.115Z,57.60
2018-11-07T03:37:12.894Z,49.13
2018-11-07T03:37:47.593Z,56.15
2018-11-07T03:38:22.261Z,53.63
2018-11-07T03:38:57.498Z,54.30
2018-11-07T03:39:32.622Z,58.55
2018-11-07T03:40:08.015Z,64.17
2018-11-07T03:40:43.034Z,49.48
2018-11-07T03:41:17.837Z,50.52
2018-11-07T03:41:52.763Z,49.33
2018-11-07T03:42:27.776Z,54.67
2018-11-07T03:43:02.578Z,54.15
2018-11-07T03:43:37.355Z,58.48
2018-11-07T03:44:12.075Z,57.00
2018-11-07T03:44:47.133Z,51.48
2018-11-07T03:45:27.076Z,50.58
2018-11-07T03:46:02.074Z,51.20
2018-11-07T03:46:36.722Z,61.15
2018-11-07T03:47:11.614Z,61.58
2018-11-07T03:47:46.376Z,63.33
2018-11-07T03:48:21.056Z,60.88
2018-11-07T03:48:55.955Z,53.80
2018-11-07T03:49:30.856Z,47.75
2018-11-07T03:50:05.934Z,47.45
2018-11-07T03:50:40.834Z,49.30
2018-11-07T03:51:15.761Z,48.00
2018-11-07T03:51:50.755Z,50.88
2018-11-07T03:52:25.676Z,46.53
2018-11-07T03:53:00.491Z,50.38
2018-11-07T03:53:35.295Z,44.45
2018-11-07T03:54:10.261Z,37.60
2018-11-07T03:54:45.094Z,43.40
2018-11-07T03:55:19.976Z,44.13
2018-11-07T03:55:54.813Z,46.25
2018-11-07T03:56:29.754Z,41.50
2018-11-07T03:57:04.502Z,43.98
2018-11-07T03:57:39.078Z,42.48
2018-11-07T03:58:13.894Z,47.80
2018-11-07T03:58:48.895Z,49.03
2018-11-07T03:59:23.595Z,47.23
2018-11-07T03:59:58.375Z,54.55
2018-11-07T04:00:33.113Z,60.23
2018-11-07T04:01:07.995Z,52.30
2018-11-07T04:01:42.795Z,45.43
2018-11-07T04:02:17.614Z,44.48
2018-11-07T04:02:52.575Z,43.40
2018-11-07T04:03:27.557Z,46.83
2018-11-07T04:04:02.475Z,47.25
2018-11-07T04:04:37.442Z,54.90
2018-11-07T04:05:12.654Z,52.70
2018-11-07T04:05:47.337Z,47.73
2018-11-07T04:06:22.002Z,43.78
2018-11-07T04:06:56.675Z,46.95
2018-11-07T04:07:31.354Z,64.62
2018-11-07T04:08:06.502Z,60.88
2018-11-07T04:08:41.014Z,55.30
2018-11-07T04:09:15.794Z,58.17
2018-11-07T04:09:50.355Z,53.87
2018-11-07T04:10:24.975Z,56.55
2018-11-07T04:10:59.978Z,58.08
2018-11-07T04:11:34.534Z,48.45
2018-11-07T04:12:09.194Z,47.00
2018-11-07T04:12:43.796Z,48.33
2018-11-07T04:13:18.577Z,45.63
2018-11-07T04:13:53.174Z,47.83
2018-11-07T04:14:27.956Z,51.63
2018-11-07T04:15:02.515Z,56.35
2018-11-07T04:15:37.354Z,53.85
2018-11-07T04:16:12.074Z,57.75
2018-11-07T04:16:46.635Z,55.08
2018-11-07T04:17:21.135Z,63.70
2018-11-07T04:17:55.856Z,52.67
2018-11-07T04:18:30.435Z,49.00
2018-11-07T04:19:05.294Z,50.83
2018-11-07T04:19:39.969Z,57.48
2018-11-07T04:20:14.614Z,53.30
2018-11-07T04:20:49.154Z,50.95
2018-11-07T04:21:23.993Z,66.10
2018-11-07T04:21:58.473Z,74.58
2018-11-07T04:22:33.114Z,82.25
2018-11-07T04:23:07.614Z,95.03
2018-11-07T04:23:42.094Z,96.60
2018-11-07T04:24:16.696Z,102.67
2018-11-07T04:24:51.455Z,97.82
2018-11-07T04:25:26.214Z,84.35
2018-11-07T04:26:00.875Z,82.10
2018-11-07T04:26:36.836Z,79.27
2018-11-07T04:27:11.474Z,73.10
2018-11-07T04:27:46.115Z,78.20
2018-11-07T04:28:20.918Z,78.95
2018-11-07T04:28:55.626Z,108.03
2018-11-07T04:29:30.477Z,132.45
2018-11-07T04:30:06.656Z,122.45
2018-11-07T04:30:41.336Z,114.22
2018-11-07T04:31:16.136Z,110.08
2018-11-07T04:31:50.860Z,108.00
2018-11-07T04:32:25.555Z,103.85
2018-11-07T04:33:00.335Z,116.37
2018-11-07T04:33:34.978Z,105.83
2018-11-07T04:34:09.634Z,96.30
2018-11-07T04:34:44.654Z,92.75
2018-11-07T04:35:19.317Z,102.53
2018-11-07T04:35:54.162Z,104.03
2018-11-07T04:36:28.933Z,106.95
2018-11-07T04:37:03.553Z,91.05
2018-11-07T04:37:38.353Z,91.37
2018-11-07T04:38:12.874Z,91.78
2018-11-07T04:38:47.815Z,91.02
2018-11-07T04:39:22.474Z,84.10
2018-11-07T04:39:57.135Z,77.60
2018-11-07T04:40:31.802Z,88.20
2018-11-07T04:41:06.675Z,84.75
2018-11-07T04:41:41.454Z,79.75
2018-11-07T04:42:16.173Z,85.55
2018-11-07T04:42:51.154Z,73.95
2018-11-07T04:43:25.814Z,74.53
2018-11-07T04:44:00.578Z,78.57
2018-11-07T04:44:35.375Z,70.40
2018-11-07T04:45:10.335Z,69.87
2018-11-07T04:45:45.178Z,73.00
2018-11-07T04:46:20.257Z,78.52
2018-11-07T04:46:55.175Z,80.10
2018-11-07T04:47:30.115Z,73.35
2018-11-07T04:48:04.955Z,79.50
2018-11-07T04:48:39.975Z,71.72
2018-11-07T04:49:14.995Z,81.25
2018-11-07T04:49:49.936Z,83.95
2018-11-07T04:50:24.815Z,84.75
2018-11-07T04:50:59.855Z,85.72
2018-11-07T04:51:34.655Z,82.10
2018-11-07T04:52:09.695Z,90.57
2018-11-07T04:52:44.815Z,84.22
2018-11-07T04:53:19.695Z,81.30
2018-11-07T04:53:54.644Z,92.75
2018-11-07T04:54:29.635Z,70.22
2018-11-07T04:55:04.675Z,84.15
2018-11-07T04:55:39.616Z,88.90
2018-11-07T04:56:14.595Z,74.55
2018-11-07T04:56:49.656Z,74.87
2018-11-07T04:57:24.675Z,74.90
2018-11-07T04:57:59.716Z,84.17
2018-11-07T04:58:34.943Z,83.85
2018-11-07T04:59:09.795Z,88.22
2018-11-07T04:59:44.875Z,78.25
2018-11-07T05:00:19.675Z,73.52
2018-11-07T05:00:54.578Z,80.07
2018-11-07T05:01:29.615Z,77.42
2018-11-07T05:02:04.555Z,79.90
2018-11-07T05:02:39.555Z,70.87
2018-11-07T05:03:14.896Z,70.52
2018-11-07T05:03:49.916Z,73.22
2018-11-07T05:04:24.815Z,72.87
2018-11-07T05:04:59.615Z,71.90
2018-11-07T05:05:34.556Z,74.82
2018-11-07T05:06:09.598Z,77.65
2018-11-07T05:06:44.435Z,75.20
2018-11-07T05:07:19.615Z,77.75
2018-11-07T05:07:54.590Z,74.42
2018-11-07T05:08:29.771Z,74.17
2018-11-07T05:09:04.995Z,73.12
2018-11-07T05:09:40.095Z,63.05
2018-11-07T05:10:15.035Z,78.52
2018-11-07T05:10:50.037Z,77.67
2018-11-07T05:11:25.075Z,75.28
2018-11-07T05:11:59.994Z,74.60
2018-11-07T05:12:35.234Z,64.22
2018-11-07T05:13:10.055Z,67.42
2018-11-07T05:13:45.175Z,65.10
2018-11-07T05:14:20.035Z,71.55
2018-11-07T05:14:55.095Z,70.45
2018-11-07T05:15:29.959Z,59.40
2018-11-07T05:16:05.042Z,60.10
2018-11-07T05:16:40.155Z,61.40
2018-11-07T05:17:15.075Z,59.85
2018-11-07T05:17:49.935Z,56.10
2018-11-07T05:18:24.935Z,55.65
2018-11-07T05:18:59.895Z,61.65
2018-11-07T05:19:34.745Z,65.85
2018-11-07T05:20:11.215Z,64.03
2018-11-07T05:20:46.136Z,69.05
2018-11-07T05:21:21.034Z,67.12
2018-11-07T05:21:56.060Z,73.35
2018-11-07T05:22:30.974Z,70.67
2018-11-07T05:23:06.195Z,67.65
2018-11-07T05:23:41.235Z,80.30
2018-11-07T05:24:16.455Z,78.12
2018-11-07T05:24:51.475Z,77.35
2018-11-07T05:25:26.435Z,80.47
2018-11-07T05:26:01.689Z,88.67
2018-11-07T05:26:36.456Z,82.05
2018-11-07T05:27:11.596Z,82.90
2018-11-07T05:27:46.595Z,78.72
2018-11-07T05:28:21.475Z,79.67
2018-11-07T05:28:56.435Z,79.72
2018-11-07T05:29:31.437Z,78.15
2018-11-07T05:30:07.415Z,78.33
2018-11-07T05:30:42.274Z,82.82
2018-11-07T05:31:17.235Z,80.50
2018-11-07T05:31:52.147Z,62.50
2018-11-07T05:32:27.275Z,60.63
2018-11-07T05:33:02.298Z,58.08
2018-11-07T05:33:37.215Z,62.38
2018-11-07T05:34:12.015Z,63.58
2018-11-07T05:34:47.215Z,66.77
2018-11-07T05:35:21.755Z,63.83
2018-11-07T05:35:56.335Z,64.82
2018-11-07T05:36:31.295Z,63.17
2018-11-07T05:37:06.335Z,75.30
2018-11-07T05:37:41.435Z,66.15
2018-11-07T05:38:16.075Z,74.82
2018-11-07T05:38:50.736Z,77.00
2018-11-07T05:39:25.517Z,68.83
2018-11-07T05:40:00.240Z,73.97
2018-11-07T05:40:34.916Z,66.75
2018-11-07T05:41:09.800Z,68.45
2018-11-07T05:41:44.376Z,74.95
2018-11-07T05:42:19.016Z,76.60
2018-11-07T05:42:53.636Z,79.97
2018-11-07T05:43:28.496Z,76.12
2018-11-07T05:44:03.316Z,82.25
2018-11-07T05:44:38.076Z,82.27
2018-11-07T05:45:13.056Z,81.63
2018-11-07T05:45:47.876Z,83.70
2018-11-07T05:46:22.676Z,85.47
2018-11-07T05:46:57.437Z,74.82
2018-11-07T05:47:32.017Z,65.62
2018-11-07T05:48:06.618Z,69.00
2018-11-07T05:48:41.217Z,70.97
2018-11-07T05:49:15.850Z,62.08
2018-11-07T05:49:50.619Z,65.75
2018-11-07T05:50:25.376Z,71.95
2018-11-07T05:51:00.177Z,68.22
2018-11-07T05:51:35.023Z,72.32
2018-11-07T05:52:09.756Z,76.00
2018-11-07T05:52:44.323Z,74.87
2018-11-07T05:53:18.976Z,68.42
2018-11-07T05:53:53.616Z,68.15
2018-11-07T05:54:28.338Z,66.20
2018-11-07T05:55:02.983Z,65.57
2018-11-07T05:55:37.856Z,68.30
2018-11-07T05:56:12.196Z,70.10
2018-11-07T05:56:46.856Z,68.52
2018-11-07T05:57:21.577Z,64.75
2018-11-07T05:57:56.296Z,61.02
2018-11-07T05:58:30.859Z,58.38
2018-11-07T05:59:05.619Z,57.78
2018-11-07T05:59:40.477Z,59.38
2018-11-07T06:00:15.256Z,62.60
2018-11-07T06:00:50.018Z,61.13
2018-11-07T06:01:24.636Z,59.63
2018-11-07T06:01:59.298Z,59.53
2018-11-07T06:02:33.937Z,57.30
2018-11-07T06:03:08.495Z,57.38
2018-11-07T06:03:43.083Z,56.92
2018-11-07T06:04:17.816Z,58.05
2018-11-07T06:04:52.476Z,52.25
2018-11-07T06:05:27.176Z,53.42
2018-11-07T06:06:01.976Z,54.45
2018-11-07T06:06:36.795Z,48.38
2018-11-07T06:07:11.363Z,50.15
2018-11-07T06:07:46.096Z,46.35
2018-11-07T06:08:20.835Z,46.23
2018-11-07T06:08:55.356Z,46.13
2018-11-07T06:09:29.896Z,50.33
2018-11-07T06:10:05.196Z,46.60
2018-11-07T06:10:40.019Z,48.30
2018-11-07T06:11:14.797Z,47.93
2018-11-07T06:11:49.423Z,47.85
2018-11-07T06:12:24.296Z,46.60
2018-11-07T06:12:59.017Z,46.13
2018-11-07T06:13:33.885Z,45.75
2018-11-07T06:14:08.739Z,46.60
2018-11-07T06:14:43.574Z,46.53
2018-11-07T06:15:18.324Z,45.12
2018-11-07T06:15:53.192Z,45.38
2018-11-07T06:16:27.937Z,43.73
2018-11-07T06:17:02.738Z,43.80
2018-11-07T06:17:37.596Z,42.25
2018-11-07T06:18:12.056Z,42.17
2018-11-07T06:18:46.695Z,39.27
2018-11-07T06:19:21.416Z,42.05
2018-11-07T06:19:56.098Z,40.55
2018-11-07T06:20:30.635Z,40.58
2018-11-07T06:21:05.255Z,39.55
2018-11-07T06:21:40.055Z,40.25
2018-11-07T06:22:14.683Z,40.00
2018-11-07T06:22:49.196Z,42.65
2018-11-07T06:23:24.017Z,39.53
2018-11-07T06:23:58.883Z,38.17
2018-11-07T06:24:33.697Z,39.45
2018-11-07T06:25:08.260Z,38.67
2018-11-07T06:25:43.098Z,40.10
2018-11-07T06:26:17.763Z,36.05
2018-11-07T06:26:52.722Z,34.88
2018-11-07T06:27:27.401Z,33.83
2018-11-07T06:28:02.136Z,34.78
2018-11-07T06:28:36.978Z,35.98
2018-11-07T06:29:11.776Z,37.23
2018-11-07T06:29:46.397Z,37.08
2018-11-07T06:30:21.040Z,35.95
2018-11-07T06:31:58.975Z,32.93
2018-11-07T06:32:33.635Z,31.73
2018-11-07T06:33:08.397Z,29.87
2018-11-07T06:33:43.056Z,30.10
2018-11-07T06:34:17.701Z,31.02
2018-11-07T06:34:52.756Z,32.03
2018-11-07T06:35:27.497Z,31.30
2018-11-07T06:36:02.541Z,32.42
2018-11-07T06:36:37.396Z,31.80
2018-11-07T06:37:12.096Z,30.23
2018-11-07T06:37:46.935Z,32.95
2018-11-07T06:38:21.898Z,30.82
2018-11-07T06:38:56.783Z,30.77
2018-11-07T06:39:31.796Z,34.40
2018-11-07T06:40:08.055Z,38.50
2018-11-07T06:40:42.817Z,34.35
2018-11-07T06:41:17.873Z,36.33
2018-11-07T06:41:52.890Z,37.03
2018-11-07T06:42:27.830Z,38.63
2018-11-07T06:43:02.870Z,38.63
2018-11-07T06:43:37.990Z,35.28
2018-11-07T06:44:12.776Z,37.60
2018-11-07T06:44:47.766Z,36.35
2018-11-07T06:45:22.686Z,34.03
2018-11-07T06:45:57.766Z,37.08
2018-11-07T06:46:32.634Z,33.18
2018-11-07T06:47:07.634Z,34.35
2018-11-07T06:47:42.714Z,36.45
2018-11-07T06:48:17.434Z,32.23
2018-11-07T06:48:52.035Z,31.33
2018-11-07T06:49:26.794Z,33.50
2018-11-07T06:50:01.536Z,31.02
2018-11-07T06:50:36.156Z,33.48
2018-11-07T06:51:10.833Z,26.75
2018-11-07T06:51:45.595Z,30.30
2018-11-07T06:52:20.254Z,28.38
2018-11-07T06:52:55.297Z,29.80
2018-11-07T06:53:29.974Z,29.27
2018-11-07T06:54:04.675Z,26.93
2018-11-07T06:54:39.355Z,27.25
2018-11-07T06:55:14.032Z,29.30
2018-11-07T06:55:48.778Z,26.77
2018-11-07T06:56:23.374Z,26.60
2018-11-07T06:56:58.018Z,25.10
2018-11-07T06:57:32.674Z,26.33
2018-11-07T06:58:07.379Z,25.15
2018-11-07T06:58:42.254Z,25.00
2018-11-07T06:59:16.997Z,24.63
2018-11-07T06:59:51.717Z,25.37
2018-11-07T07:00:26.365Z,25.10
2018-11-07T07:01:00.941Z,23.90
2018-11-07T07:01:35.718Z,22.90
2018-11-07T07:02:10.334Z,22.90
2018-11-07T07:02:46.117Z,24.25
2018-11-07T07:03:21.095Z,26.15
2018-11-07T07:03:55.835Z,25.08
2018-11-07T07:04:30.634Z,26.33
2018-11-07T07:05:05.974Z,26.60
2018-11-07T07:05:40.733Z,25.52
2018-11-07T07:06:15.215Z,26.10
2018-11-07T07:06:49.923Z,26.77
2018-11-07T07:07:24.655Z,26.10
2018-11-07T07:07:59.358Z,25.50
2018-11-07T07:08:34.215Z,26.12
2018-11-07T07:09:09.875Z,26.40
2018-11-07T07:09:44.755Z,26.37
2018-11-07T07:10:19.855Z,24.67
2018-11-07T07:10:54.694Z,26.48
2018-11-07T07:11:29.514Z,25.37
2018-11-07T07:12:04.221Z,28.42
2018-11-07T07:12:38.881Z,28.62
2018-11-07T07:13:13.615Z,28.80
2018-11-07T07:13:48.356Z,28.65
2018-11-07T07:14:23.098Z,26.80
2018-11-07T07:14:57.938Z,26.90
2018-11-07T07:15:32.735Z,26.40
2018-11-07T07:16:07.615Z,27.15
2018-11-07T07:16:42.395Z,27.05
2018-11-07T07:17:17.326Z,27.07
2018-11-07T07:17:52.063Z,30.00
2018-11-07T07:18:26.653Z,27.75
2018-11-07T07:19:01.441Z,27.55
2018-11-07T07:19:35.934Z,29.48
2018-11-07T07:20:16.893Z,28.12
2018-11-07T07:20:51.433Z,26.87
2018-11-07T07:21:26.373Z,26.02
2018-11-07T07:22:01.283Z,27.67
2018-11-07T07:22:36.096Z,26.60
2018-11-07T07:23:10.761Z,28.27
2018-11-07T07:23:45.394Z,27.45
2018-11-07T07:24:20.135Z,26.48
2018-11-07T07:24:55.036Z,28.73
2018-11-07T07:25:29.654Z,26.97
2018-11-07T07:26:04.494Z,28.25
2018-11-07T07:26:39.175Z,28.42
2018-11-07T07:27:13.936Z,28.60
2018-11-07T07:27:48.675Z,29.20
2018-11-07T07:28:23.238Z,27.70
2018-11-07T07:28:58.388Z,28.07
2018-11-07T07:29:33.448Z,27.75
2018-11-07T07:30:11.667Z,26.95
2018-11-07T07:30:46.568Z,28.17
2018-11-07T07:31:21.377Z,26.68
2018-11-07T07:31:56.137Z,26.95
2018-11-07T07:32:30.959Z,28.92
2018-11-07T07:33:05.821Z,26.87
2018-11-07T07:33:40.712Z,28.35
2018-11-07T07:34:15.795Z,28.50
2018-11-07T07:34:50.375Z,26.95